createdAt,value
2018-04-19T00:03:43.887Z,14.60
2018-04-19T00:07:46.540Z,14.60
2018-04-19T00:11:49.251Z,14.50
2018-04-19T00:15:51.911Z,14.40
2018-04-19T00:19:54.577Z,14.40
2018-04-19T00:23:57.191Z,14.30
2018-04-19T00:27:59.841Z,14.20
2018-04-19T00:32:02.555Z,14.20
2018-04-19T00:36:05.204Z,14.10
2018-04-19T00:40:08.581Z,14.00
2018-04-19T00:44:11.232Z,13.90
2018-04-19T00:48:13.883Z,13.90
2018-04-19T00:52:17.300Z,13.80
2018-04-19T00:56:20.727Z,13.70
2018-04-19T01:00:23.384Z,13.70
2018-04-19T01:04:26.864Z,13.60
2018-04-19T01:08:29.610Z,13.60
2018-04-19T01:12:32.327Z,13.60
2018-04-19T01:16:34.941Z,13.50
2018-04-19T01:20:37.600Z,13.50
2018-04-19T01:24:40.304Z,13.40
2018-04-19T01:28:42.952Z,13.40
2018-04-19T01:32:45.640Z,13.30
2018-04-19T01:36:48.256Z,13.30
2018-04-19T01:40:50.900Z,13.20
2018-04-19T01:44:54.320Z,13.10
2018-04-19T01:48:56.967Z,13.10
2018-04-19T01:52:59.677Z,13.10
2018-04-19T01:57:03.055Z,13.00
2018-04-19T02:01:05.708Z,13.00
2018-04-19T02:05:08.361Z,13.00
2018-04-19T02:09:11.884Z,12.90
2018-04-19T02:13:15.311Z,12.80
2018-04-19T02:17:18.747Z,12.80
2018-04-19T02:21:21.403Z,12.70
2018-04-19T02:25:24.063Z,12.80
2018-04-19T02:29:26.747Z,12.70
2018-04-19T02:33:30.179Z,12.60
2018-04-19T02:37:32.832Z,12.50
2018-04-19T02:41:35.491Z,12.50
2018-04-19T02:45:38.145Z,12.50
2018-04-19T02:49:40.801Z,12.40
2018-04-19T02:53:43.421Z,12.40
2018-04-19T02:57:46.139Z,12.30
2018-04-19T03:01:48.852Z,12.30
2018-04-19T03:05:51.568Z,12.20
2018-04-19T03:09:55.101Z,12.20
2018-04-19T03:13:57.715Z,12.10
2018-04-19T03:18:00.370Z,12.10
2018-04-19T03:22:03.020Z,12.10
2018-04-19T03:26:05.676Z,12.10
2018-04-19T03:30:08.342Z,12.00
2018-04-19T03:34:11.008Z,12.00
2018-04-19T03:38:14.438Z,11.90
2018-04-19T03:42:17.087Z,11.90
2018-04-19T03:46:19.740Z,11.90
2018-04-19T03:50:22.400Z,11.90
2018-04-19T03:54:25.011Z,11.90
2018-04-19T03:58:27.678Z,11.90
2018-04-19T04:02:30.327Z,11.80
2018-04-19T04:06:32.980Z,11.80
2018-04-19T04:10:35.647Z,11.80
2018-04-19T04:14:38.260Z,11.80
2018-04-19T04:18:52.741Z,11.80
2018-04-19T04:23:06.271Z,11.70
2018-04-19T04:27:08.929Z,11.70
2018-04-19T04:31:11.625Z,11.70
2018-04-19T04:35:14.270Z,11.70
2018-04-19T04:39:17.677Z,11.60
2018-04-19T04:43:20.335Z,11.60
2018-04-19T04:47:22.989Z,11.60
2018-04-19T04:51:25.642Z,11.60
2018-04-19T04:55:28.296Z,11.60
2018-04-19T04:59:30.908Z,11.60
2018-04-19T05:03:33.616Z,11.60
2018-04-19T05:07:37.045Z,11.70
2018-04-19T05:11:39.700Z,11.60
2018-04-19T05:15:42.361Z,11.80
2018-04-19T05:19:44.982Z,11.80
2018-04-19T05:23:47.701Z,11.90
2018-04-19T05:27:50.363Z,11.90
2018-04-19T05:31:53.022Z,12.00
2018-04-19T05:35:55.808Z,12.00
2018-04-19T05:39:58.423Z,12.10
2018-04-19T05:44:01.084Z,12.20
2018-04-19T05:48:03.741Z,12.30
2018-04-19T05:52:06.407Z,12.30
2018-04-19T05:56:09.834Z,12.70
2018-04-19T06:00:12.448Z,12.60
2018-04-19T06:04:15.104Z,12.80
2018-04-19T06:08:17.773Z,13.00
2018-04-19T06:12:21.200Z,13.10
2018-04-19T06:16:23.879Z,13.10
2018-04-19T06:20:27.250Z,13.20
2018-04-19T06:24:29.903Z,13.20
2018-04-19T06:28:32.561Z,13.30
2018-04-19T06:32:35.982Z,13.50
2018-04-19T06:36:38.648Z,13.60
2018-04-19T06:40:42.019Z,13.80
2018-04-19T06:44:44.673Z,13.70
2018-04-19T06:48:47.328Z,14.00
2018-04-19T06:52:50.749Z,14.40
2018-04-19T06:56:54.180Z,14.50
2018-04-19T07:00:56.792Z,14.50
2018-04-19T07:04:59.502Z,14.80
2018-04-19T07:09:02.161Z,15.30
2018-04-19T07:13:04.827Z,16.20
2018-04-19T07:17:07.488Z,17.60
2018-04-19T07:21:10.101Z,19.30
2018-04-19T07:25:12.789Z,20.70
2018-04-19T07:29:15.457Z,22.00
2018-04-19T07:33:18.892Z,24.10
2018-04-19T07:37:21.543Z,24.00
2018-04-19T07:41:24.991Z,25.80
2018-04-19T07:45:27.711Z,25.70
2018-04-19T07:49:30.392Z,26.50
2018-04-19T07:53:33.062Z,27.10
2018-04-19T07:57:35.752Z,27.60
2018-04-19T08:01:38.384Z,28.10
2018-04-19T08:05:41.166Z,28.50
2018-04-19T08:09:43.835Z,28.80
2018-04-19T08:13:46.516Z,29.10
2018-04-19T08:17:49.181Z,29.20
2018-04-19T08:21:51.851Z,29.40
2018-04-19T08:25:55.285Z,29.30
2018-04-19T08:29:57.965Z,29.20
2018-04-19T08:34:00.655Z,28.70
2018-04-19T08:38:06.046Z,27.70
2018-04-19T08:42:08.806Z,26.70
2018-04-19T08:46:11.475Z,25.70
2018-04-19T08:50:14.929Z,24.60
2018-04-19T08:54:17.621Z,24.50
2018-04-19T08:58:20.286Z,24.20
2018-04-19T09:02:22.953Z,23.90
2018-04-19T09:06:25.758Z,23.70
2018-04-19T09:10:28.459Z,23.50
2018-04-19T09:14:31.129Z,23.30
2018-04-19T09:18:33.876Z,23.30
2018-04-19T09:22:36.615Z,23.30
2018-04-19T09:26:39.301Z,23.20
2018-04-19T09:30:41.915Z,23.20
2018-04-19T09:34:44.568Z,23.20
2018-04-19T09:38:47.983Z,23.30
2018-04-19T09:42:50.708Z,23.20
2018-04-19T09:46:53.366Z,23.30
2018-04-19T09:50:55.985Z,23.20
2018-04-19T09:54:58.634Z,23.30
2018-04-19T09:59:13.174Z,23.30
2018-04-19T10:03:18.814Z,23.30
2018-04-19T10:07:21.473Z,23.40
2018-04-19T10:11:24.131Z,23.40
2018-04-19T10:15:27.514Z,23.40
2018-04-19T10:19:30.941Z,23.50
2018-04-19T10:23:34.418Z,23.50
2018-04-19T10:27:37.123Z,23.40
2018-04-19T10:31:39.843Z,23.50
2018-04-19T10:35:42.635Z,23.50
2018-04-19T10:39:45.296Z,23.60
2018-04-19T10:43:48.737Z,23.80
2018-04-19T10:47:51.438Z,23.70
2018-04-19T10:51:54.178Z,23.90
2018-04-19T10:55:57.636Z,24.00
2018-04-19T11:00:00.304Z,24.00
2018-04-19T11:04:02.974Z,24.10
2018-04-19T11:08:06.400Z,24.30
2018-04-19T11:12:09.061Z,24.30
2018-04-19T11:16:12.449Z,24.40
2018-04-19T11:20:15.108Z,24.40
2018-04-19T11:24:17.764Z,24.50
2018-04-19T11:28:20.416Z,24.60
2018-04-19T11:32:23.075Z,24.60
2018-04-19T11:36:26.449Z,24.70
2018-04-19T11:40:29.105Z,24.70
2018-04-19T11:44:31.759Z,24.80
2018-04-19T11:48:34.413Z,24.80
2018-04-19T11:52:37.072Z,24.90
2018-04-19T11:56:39.693Z,25.00
2018-04-19T12:00:42.355Z,25.10
2018-04-19T12:04:45.012Z,25.10
2018-04-19T12:08:47.673Z,25.20
2018-04-19T12:12:51.095Z,25.30
2018-04-19T12:16:53.787Z,25.30
2018-04-19T12:20:56.551Z,25.40
2018-04-19T12:24:59.208Z,25.50
2018-04-19T12:29:01.876Z,25.60
2018-04-19T12:33:04.524Z,25.70
2018-04-19T12:37:07.136Z,25.80
2018-04-19T12:41:09.792Z,26.00
2018-04-19T12:45:12.449Z,26.20
2018-04-19T12:49:15.157Z,26.30
2018-04-19T12:53:18.574Z,26.60
2018-04-19T12:57:21.182Z,26.60
2018-04-19T13:01:24.609Z,26.80
2018-04-19T13:05:27.328Z,26.70
2018-04-19T13:09:29.976Z,26.80
2018-04-19T13:13:32.629Z,26.90
2018-04-19T13:17:35.241Z,26.90
2018-04-19T13:21:37.901Z,26.90
2018-04-19T13:25:41.458Z,26.80
2018-04-19T13:29:44.117Z,26.70
2018-04-19T13:33:46.772Z,26.80
2018-04-19T13:37:50.151Z,26.80
2018-04-19T13:41:52.803Z,26.80
2018-04-19T13:45:55.460Z,26.80
2018-04-19T13:49:58.990Z,26.90
2018-04-19T13:54:01.657Z,26.90
2018-04-19T13:58:05.037Z,26.90
2018-04-19T14:02:07.701Z,26.90
2018-04-19T14:06:10.352Z,26.90
2018-04-19T14:10:13.770Z,26.90
2018-04-19T14:14:16.430Z,26.90
2018-04-19T14:18:19.868Z,26.90
2018-04-19T14:22:22.517Z,26.80
2018-04-19T14:26:25.175Z,26.90
2018-04-19T14:30:27.831Z,26.90
2018-04-19T14:34:30.491Z,26.90
2018-04-19T14:38:33.860Z,26.90
2018-04-19T14:42:36.614Z,26.90
2018-04-19T14:46:39.285Z,26.90
2018-04-19T14:50:42.773Z,26.70
2018-04-19T14:54:45.474Z,26.70
2018-04-19T14:58:48.861Z,26.70
2018-04-19T15:02:51.627Z,26.60
2018-04-19T15:06:54.311Z,26.60
2018-04-19T15:10:57.728Z,26.50
2018-04-19T15:15:00.374Z,26.50
2018-04-19T15:19:03.068Z,26.40
2018-04-19T15:23:05.724Z,26.40
2018-04-19T15:27:08.377Z,26.30
2018-04-19T15:31:11.031Z,26.10
2018-04-19T15:35:13.747Z,26.10
2018-04-19T15:39:17.138Z,26.00
2018-04-19T15:43:19.817Z,25.90
2018-04-19T15:47:22.488Z,25.90
2018-04-19T15:51:25.918Z,25.90
2018-04-19T15:55:28.659Z,25.90
2018-04-19T15:59:31.330Z,25.90
2018-04-19T16:03:34.006Z,25.90
2018-04-19T16:07:36.665Z,25.90
2018-04-19T16:11:39.325Z,25.80
2018-04-19T16:15:42.153Z,25.70
2018-04-19T16:19:44.819Z,25.60
2018-04-19T16:23:48.255Z,25.40
2018-04-19T16:27:51.041Z,25.40
2018-04-19T16:31:53.708Z,25.40
2018-04-19T16:35:57.160Z,25.20
2018-04-19T16:39:59.835Z,25.20
2018-04-19T16:44:03.270Z,25.10
2018-04-19T16:48:05.986Z,25.00
2018-04-19T16:52:09.435Z,24.90
2018-04-19T16:56:12.217Z,24.80
2018-04-19T17:00:14.918Z,24.80
2018-04-19T17:04:17.541Z,24.80
2018-04-19T17:08:20.208Z,24.60
2018-04-19T17:12:22.865Z,24.50
2018-04-19T17:16:25.531Z,24.40
2018-04-19T17:20:28.945Z,24.10
2018-04-19T17:24:32.320Z,24.00
2018-04-19T17:28:34.982Z,23.90
2018-04-19T17:32:37.645Z,23.90
2018-04-19T17:36:40.299Z,23.70
2018-04-19T17:40:43.004Z,23.60
2018-04-19T17:44:46.380Z,23.20
2018-04-19T17:48:49.835Z,23.00
2018-04-19T17:52:52.484Z,22.90
2018-04-19T17:56:55.192Z,22.90
2018-04-19T18:00:58.608Z,22.50
2018-04-19T18:05:01.991Z,22.40
2018-04-19T18:09:04.670Z,22.30
2018-04-19T18:13:07.324Z,22.20
2018-04-19T18:17:09.970Z,22.10
2018-04-19T18:21:13.397Z,21.80
2018-04-19T18:25:16.009Z,21.70
2018-04-19T18:29:18.663Z,21.60
2018-04-19T18:33:22.087Z,21.30
2018-04-19T18:37:24.741Z,21.30
2018-04-19T18:41:27.397Z,21.30
2018-04-19T18:45:30.279Z,21.10
2018-04-19T18:49:32.964Z,21.00
2018-04-19T18:53:35.616Z,20.90
2018-04-19T18:57:39.031Z,20.70
2018-04-19T19:01:42.855Z,20.70
2018-04-19T19:05:46.430Z,20.60
2018-04-19T19:09:49.189Z,20.60
2018-04-19T19:13:51.953Z,20.50
2018-04-19T19:18:07.235Z,20.30
2018-04-19T19:22:09.892Z,20.20
2018-04-19T19:26:13.275Z,20.20
2018-04-19T19:30:16.413Z,20.10
2018-04-19T19:34:19.867Z,20.00
2018-04-19T19:38:22.531Z,20.00
2018-04-19T19:42:25.261Z,19.90
2018-04-19T19:46:27.871Z,19.80
2018-04-19T19:50:30.526Z,19.80
2018-04-19T19:54:33.228Z,19.70
2018-04-19T19:58:36.759Z,19.70
2018-04-19T20:02:39.416Z,19.60
2018-04-19T20:06:42.029Z,19.50
2018-04-19T20:10:44.680Z,19.50
2018-04-19T20:14:47.384Z,19.30
2018-04-19T20:18:50.088Z,19.20
2018-04-19T20:22:52.794Z,19.00
2018-04-19T20:26:56.228Z,18.80
2018-04-19T20:30:58.886Z,18.70
2018-04-19T20:35:01.579Z,18.60
2018-04-19T20:39:05.012Z,18.40
2018-04-19T20:43:07.668Z,18.30
2018-04-19T20:47:10.283Z,18.30
2018-04-19T20:51:12.939Z,18.20
2018-04-19T20:55:15.593Z,18.20
2018-04-19T20:59:18.245Z,18.10
2018-04-19T21:03:21.656Z,17.90
2018-04-19T21:07:24.270Z,17.80
2018-04-19T21:11:26.926Z,17.80
2018-04-19T21:15:29.635Z,17.70
2018-04-19T21:19:32.284Z,17.70
2018-04-19T21:23:34.940Z,17.60
2018-04-19T21:27:37.549Z,17.50
2018-04-19T21:31:40.204Z,17.50
2018-04-19T21:35:43.619Z,17.40
2018-04-19T21:39:46.274Z,17.40
2018-04-19T21:43:48.932Z,17.40
2018-04-19T21:47:51.545Z,17.40
2018-04-19T21:51:54.197Z,17.40
2018-04-19T21:55:56.852Z,17.30
2018-04-19T21:59:59.510Z,17.30
2018-04-19T22:04:02.168Z,17.20
2018-04-19T22:08:04.776Z,17.20
2018-04-19T22:12:08.192Z,17.10
2018-04-19T22:16:10.859Z,17.00
2018-04-19T22:20:13.548Z,17.00
2018-04-19T22:24:16.205Z,16.90
2018-04-19T22:28:18.819Z,16.80
2018-04-19T22:32:21.480Z,16.80
2018-04-19T22:36:24.932Z,16.60
2018-04-19T22:40:28.348Z,16.60
2018-04-19T22:44:30.999Z,16.50
2018-04-19T22:48:33.660Z,16.50
2018-04-19T22:52:36.309Z,16.40
2018-04-19T22:56:39.729Z,16.30
2018-04-19T23:00:42.381Z,16.20
2018-04-19T23:04:45.032Z,16.20
2018-04-19T23:08:47.693Z,16.20
2018-04-19T23:12:50.297Z,16.10
2018-04-19T23:16:52.980Z,16.10
2018-04-19T23:20:55.635Z,16.00
2018-04-19T23:24:59.062Z,16.00
2018-04-19T23:29:01.740Z,15.90
2018-04-19T23:33:04.368Z,15.90
2018-04-19T23:37:07.016Z,15.80
2018-04-19T23:41:10.435Z,15.80
2018-04-19T23:45:13.080Z,15.70
2018-04-19T23:49:15.737Z,15.70
2018-04-19T23:53:18.355Z,15.70
2018-04-19T23:57:21.011Z,15.60
